Record high temperature 45.5°C Record low temperature -0.3°C Record high gust 87.3 km/h Record high average 77.7 km/h Record daily rain 484.8 mm Record low windchill -5.8°C Record high barometer 1043.6 hPa Record low barometer 978.0 hPa
Daily high pressure 1014.4 mb Daily low pressure 1013.0 mb Daily low windchill 16.9°C Daily high heat index 19.8°C Daily high gust speed 13.0 kmh S Daily high average speed 7.6 kmh SSW
MeteoMurcia.com
Ultima grabación a: 10:15 Data: 27 September 2022, time of next update: 10:20
Tiempo actualClear Temperatura actual19.8°C (67.6°F) (Indice de Calor19.8°C ), Temperatura aparente 19.7°C
Temperatura máxima (desde medianoche)19.8°C at: 10:12 Temperatura mínima (desde medianoche)16.9°C at: 07:38
Velocidad media del viento (diez minutos)7.4 kmh (4.0 kts) Dirección del viento (diez minutos)SW (218°)
Indice de Calor19.8°C ráfagas maxima (última hora)12.2 kmh (6.6 kts) at: 10:06
ráfagas maxima (desde medianoche)13.0 kmh (7.0 kts) at: 08:49 Maximo media de un minuto (desde medianoche)7.6 kmh (4.1 kts) at: 09:01
Lluvia (última hora)0.0 mm Lluvia (desde medianoche)0.2 mm (0.01 in.) at 05:10
Lluvia Este mes 88.5 mm (3.48 in.) Lluvia Hasta la fecha este año424.7 mm (16.72 in.)
Lluvia máxima por minuto (última hora)0.0 mm/min Lluvia maxima por hora (últimas 6 horas)0.0 mm/hora
Lluvia de ayer 51.2 mm Punto de rocío 13.5°C (Wet Bulb :16.2°C )
Humedad 67 %, Humidex 22.9°C Barómetro corregido a msl1014.4 mb
cambio de presión+0.3 mb (última hora) Tendencia (últimas 1 hora)ESTACIONARIO
cambio de presión (últimas 12 horas)+0.9 mb cambio de presión (últimas 6 horas)+1.1 mb
Current Temp. Interna 29.4°C
Current Hum. Interna 43%


Última imagen cámara web


Weather report/warning/Metars

Murcia / Alcantarilla, Spain (LERI) 37-57N 001-14W 75M
Sep 27, 2022 - 04:00 AM EDT / 2022.09.27 0800 UTC
Wind: from the S (180 degrees) at 3 MPH (3 KT) (direction variable):0
Visibility: greater than 7 mile(s):0
Temperature: 66 F (19 C)
Dew Point: 53 F (12 C)
Relative Humidity: 63%
Pressure (altimeter): 30.00 in. Hg (1016 hPa)
ob: LERI 270800Z 18003KT 140V220 CAVOK 19/12 Q1016 NOSIG
cycle: 8
Station name not available
Sep 27, 2022 - 04:00 AM EDT / 2022.09.27 0800 UTC
Wind: from the WNW (300 degrees) at 8 MPH (7 KT) (direction variable):0
Visibility: greater than 7 mile(s):0
Temperature: 69 F (21 C)
Dew Point: 48 F (9 C)
Relative Humidity: 46%
Pressure (altimeter): 29.97 in. Hg (1015 hPa)
ob: LEMI 270800Z 30007KT 260V330 CAVOK 21/09 Q1015
cycle: 8
Alicante / El Altet, Spain (LEAL) 38-17N 000-33W 31M
Sep 27, 2022 - 04:00 AM EDT / 2022.09.27 0800 UTC
Wind: from the W (280 degrees) at 15 MPH (13 KT):0
Visibility: greater than 7 mile(s):0
Temperature: 68 F (20 C)
Dew Point: 50 F (10 C)
Relative Humidity: 52%
Pressure (altimeter): 29.94 in. Hg (1014 hPa)
ob: LEAL 270800Z 28013KT CAVOK 20/10 Q1014 NOSIG
cycle: 8



La informacion se graba a intervalos de 2 minutos, pero hay info grabada cada minuto. Optimizado para 800*600 y Color verdadero. Use el boton de

Use the RECARGA en su navegador para recojer la ulima info.

Clicar aquí para regarga diaria de medias/extremas del mes














Created by "Weather Display" software version 10.37S at this start time/date 23:27:37 25/09/2022

La estación de MeteoMurcia.com, publica sus datos en los siguientes proyectos:

Weather Underground PWS IMURCIAP2 Meteoclimatic www.awekas.at

Web Analytics

Clicky